Time;durP1;ratioP1;P1;durP2;ratioP2;P2;SDS_P1;SDS_P2;PMS_P1;PMS_P2;Temp;Humidity;BMP_temperature;BMP_pressure;BME280_temperature;BME280_humidity;BME280_pressure;Samples;Min_cycle;Max_cycle;Signal;HPM_P1;HPM_P2
2023/01/18 00:01:09;;;;;;;6.45;2.90;;;;;;;9.09;nan;-24071.03;5035423;28;20286;-80
2023/01/18 00:03:37;;;;;;;5.03;2.33;;;;;;;9.29;nan;-24076.66;5035030;28;20219;-78
2023/01/18 00:06:04;;;;;;;5.40;2.42;;;;;;;9.27;nan;-24076.09;5033590;28;20171;-79
2023/01/18 00:08:31;;;;;;;5.70;3.25;;;;;;;9.11;nan;-24071.59;5035071;28;20212;-79
2023/01/18 00:11:14;;;;;;;6.45;3.38;;;;;;;9.18;nan;-24073.56;5034903;28;20202;-80
2023/01/18 00:13:40;;;;;;;4.90;2.80;;;;;;;9.29;nan;-24076.53;5035045;28;20183;-77
2023/01/18 00:16:14;;;;;;;6.20;2.75;;;;;;;9.47;nan;-24081.63;5034954;28;20201;-77
2023/01/18 00:18:40;;;;;;;5.70;2.65;;;;;;;9.45;nan;-24081.06;5034680;28;20285;-78
2023/01/18 00:21:08;;;;;;;2.95;2.03;;;;;;;9.28;nan;-24076.25;5035781;28;20208;-77
2023/01/18 00:23:34;;;;;;;8.52;2.42;;;;;;;9.61;nan;-24085.56;5038052;28;20265;-77
2023/01/18 00:26:05;;;;;;;2.75;2.35;;;;;;;9.73;nan;-24088.97;5056850;28;20203;-76
2023/01/18 00:28:31;;;;;;;2.15;1.88;;;;;;;9.86;nan;-24092.34;5035333;28;20186;-79
2023/01/18 00:30:56;;;;;;;2.33;2.13;;;;;;;9.76;nan;-24089.81;5034954;28;20199;-79
2023/01/18 00:33:22;;;;;;;2.47;1.83;;;;;;;10.31;nan;-24104.94;5033156;28;20649;-77
2023/01/18 00:35:58;;;;;;;6.32;2.10;;;;;;;10.55;nan;-24111.69;5035359;28;20242;-77
2023/01/18 00:38:24;;;;;;;2.10;1.90;;;;;;;10.66;nan;-24114.81;5034461;28;20175;-76
2023/01/18 00:40:50;;;;;;;5.15;2.25;;;;;;;10.73;nan;-24116.63;5034688;28;20171;-79
2023/01/18 00:45:59;;;;;;;3.40;2.30;;;;;;;10.57;nan;-24112.41;5034541;28;20282;-78
2023/01/18 00:48:25;;;;;;;3.17;2.08;;;;;;;10.19;nan;-24101.69;5033455;28;20682;-79
2023/01/18 00:50:50;;;;;;;2.67;1.90;;;;;;;10.33;nan;-24105.63;5034558;28;20207;-80
2023/01/18 00:53:15;;;;;;;2.90;2.10;;;;;;;10.46;nan;-24109.31;5033663;28;20171;-77
2023/01/18 00:55:41;;;;;;;3.15;2.30;;;;;;;10.04;nan;-24097.59;5035643;28;20175;-80
2023/01/18 00:58:06;;;;;;;2.25;1.80;;;;;;;10.32;nan;-24105.34;5034132;28;20171;-78
2023/01/18 01:00:32;;;;;;;2.40;1.55;;;;;;;10.37;nan;-24106.63;5034209;28;20203;-76
2023/01/18 01:02:57;;;;;;;6.03;2.00;;;;;;;10.50;nan;-24110.28;5033229;28;20238;-77
2023/01/18 01:08:16;;;;;;;2.80;2.13;;;;;;;10.78;nan;-24118.19;5034376;28;20202;-76
2023/01/18 01:10:45;;;;;;;6.43;1.90;;;;;;;10.45;nan;-24109.03;5033950;28;20191;-78
2023/01/18 01:26:51;;;;;;;13.02;6.57;;;;;;;10.43;nan;-24108.47;5033647;28;20186;-79
2023/01/18 01:29:16;;;;;;;13.13;6.15;;;;;;;10.30;nan;-24104.78;5032384;28;20191;-78
2023/01/18 01:31:42;;;;;;;7.85;4.32;;;;;;;10.42;nan;-24108.16;5034078;28;20188;-77
2023/01/18 01:34:08;;;;;;;15.95;4.70;;;;;;;10.18;nan;-24101.41;5033043;28;20178;-79
2023/01/18 01:36:34;;;;;;;7.93;4.43;;;;;;;10.02;nan;-24097.03;5032653;28;20183;-79
2023/01/18 01:38:59;;;;;;;5.05;2.85;;;;;;;10.10;nan;-24099.28;5032156;28;20198;-78
2023/01/18 01:41:32;;;;;;;4.43;2.67;;;;;;;10.05;nan;-24097.72;5031782;28;20635;-79
2023/01/18 01:44:03;;;;;;;2.35;1.95;;;;;;;10.59;nan;-24112.97;5033515;28;20266;-78
2023/01/18 01:46:41;;;;;;;5.38;1.80;;;;;;;10.64;nan;-24114.25;5033092;28;20661;-80
2023/01/18 01:49:16;;;;;;;4.07;1.88;;;;;;;10.71;nan;-24116.22;5032066;28;20211;-81
2023/01/18 01:51:44;;;;;;;1.95;1.55;;;;;;;10.70;nan;-24115.94;5031873;28;20171;-79
2023/01/18 01:54:27;;;;;;;3.38;1.80;;;;;;;10.56;nan;-24112.13;5033181;28;20174;-78
2023/01/18 01:56:57;;;;;;;7.55;1.98;;;;;;;10.33;nan;-24105.50;5032860;28;20262;-79
2023/01/18 01:59:23;;;;;;;2.50;2.00;;;;;;;10.66;nan;-24114.66;5032691;28;20167;-77
2023/01/18 02:01:48;;;;;;;2.20;2.00;;;;;;;10.61;nan;-24113.41;5031611;28;20193;-80
2023/01/18 02:04:14;;;;;;;5.03;1.90;;;;;;;11.37;nan;-24134.53;5032931;28;20510;-78
2023/01/18 02:06:39;;;;;;;2.15;1.92;;;;;;;11.50;nan;-24138.34;5032527;28;20280;-80
2023/01/18 02:09:13;;;;;;;5.30;1.77;;;;;;;11.46;nan;-24137.22;5031290;28;20167;-80
2023/01/18 02:11:40;;;;;;;2.47;1.65;;;;;;;11.45;nan;-24136.94;5031455;28;20174;-80
2023/01/18 02:14:14;;;;;;;2.10;1.70;;;;;;;10.62;nan;-24113.81;5031785;28;20268;-79
2023/01/18 02:16:50;;;;;;;3.15;2.15;;;;;;;10.69;nan;-24115.50;5032314;28;20226;-77
2023/01/18 02:19:22;;;;;;;2.35;1.60;;;;;;;10.55;nan;-24111.69;5032335;28;20163;-76
2023/01/18 02:21:57;;;;;;;1.73;1.63;;;;;;;10.42;nan;-24108.16;5032281;28;20179;-80
2023/01/18 02:24:55;;;;;;;4.57;2.15;;;;;;;10.47;nan;-24109.59;5031408;28;20580;-76
2023/01/18 02:27:24;;;;;;;2.58;1.77;;;;;;;10.62;nan;-24113.81;5032421;28;20242;-78
2023/01/18 02:30:07;;;;;;;1.67;1.58;;;;;;;10.45;nan;-24108.88;5030801;28;20203;-79
2023/01/18 02:32:45;;;;;;;2.17;1.98;;;;;;;10.58;nan;-24112.69;5032793;28;20221;-79
2023/01/18 02:35:19;;;;;;;2.88;2.22;;;;;;;10.34;nan;-24105.78;5032373;28;20163;-76
2023/01/18 02:38:13;;;;;;;8.57;2.38;;;;;;;10.47;nan;-24109.44;5032224;28;20233;-78
2023/01/18 02:40:55;;;;;;;2.55;2.13;;;;;;;9.97;nan;-24095.47;5023111;28;20253;-77
2023/01/18 02:46:29;;;;;;;2.30;1.70;;;;;;;10.04;nan;-24097.59;5032501;28;20186;-79
2023/01/18 02:48:57;;;;;;;2.05;1.88;;;;;;;9.87;nan;-24092.78;5031252;28;20261;-80
2023/01/18 02:51:24;;;;;;;2.00;1.80;;;;;;;9.96;nan;-24095.19;5032925;28;20533;-78
2023/01/18 02:53:49;;;;;;;3.28;1.90;;;;;;;9.94;nan;-24094.63;5046499;28;20217;-77
2023/01/18 02:56:20;;;;;;;1.92;1.80;;;;;;;9.99;nan;-24096.03;5038120;28;20586;-78
2023/01/18 02:58:57;;;;;;;2.50;1.75;;;;;;;10.36;nan;-24106.47;5032168;28;20184;-78
2023/01/18 03:01:58;;;;;;;4.05;1.90;;;;;;;9.86;nan;-24092.34;5032003;28;20178;-79
2023/01/18 03:04:30;;;;;;;2.10;1.90;;;;;;;9.63;nan;-24086.00;5026389;28;20256;-77
2023/01/18 03:07:27;;;;;;;7.78;2.00;;;;;;;9.73;nan;-24088.97;5030715;28;20182;-79
2023/01/18 03:09:53;;;;;;;2.58;2.03;;;;;;;9.72;nan;-24088.53;5027131;28;20218;-78
2023/01/18 03:12:44;;;;;;;2.00;1.65;;;;;;;9.76;nan;-24089.66;5030572;28;20533;-77
2023/01/18 03:15:22;;;;;;;3.97;1.85;;;;;;;9.82;nan;-24091.22;5031772;28;20179;-79
2023/01/18 03:17:54;;;;;;;2.75;2.13;;;;;;;9.27;nan;-24075.97;5030600;28;20179;-78
2023/01/18 03:20:29;;;;;;;3.00;1.80;;;;;;;9.58;nan;-24084.72;5032383;28;20612;-77
2023/01/18 03:25:58;;;;;;;2.47;2.20;;;;;;;9.37;nan;-24078.78;5031044;28;20292;-77
2023/01/18 03:34:33;;;;;;;5.40;2.00;;;;;;;9.84;nan;-24091.78;5031529;28;20230;-80
2023/01/18 03:37:03;;;;;;;4.38;2.85;;;;;;;9.58;nan;-24084.59;5031358;28;20171;-78
2023/01/18 03:39:53;;;;;;;3.22;1.98;;;;;;;9.99;nan;-24096.16;5031788;28;20179;-80
2023/01/18 03:42:32;;;;;;;1.88;1.77;;;;;;;9.98;nan;-24095.75;5031411;28;20564;-79
2023/01/18 03:45:07;;;;;;;3.67;1.95;;;;;;;9.73;nan;-24088.81;5031391;28;20539;-78
2023/01/18 03:47:33;;;;;;;2.97;2.10;;;;;;;9.93;nan;-24094.34;5031913;28;20179;-80
2023/01/18 03:49:59;;;;;;;2.20;1.67;;;;;;;9.68;nan;-24087.56;5030170;28;20245;-78
2023/01/18 03:52:37;;;;;;;2.65;2.00;;;;;;;9.87;nan;-24092.78;5031192;28;20185;-80
2023/01/18 03:55:06;;;;;;;1.80;1.67;;;;;;;9.93;nan;-24094.34;5031235;28;20229;-80
2023/01/18 03:57:49;;;;;;;3.08;1.75;;;;;;;9.53;nan;-24083.31;5034541;28;20187;-79
2023/01/18 04:00:15;;;;;;;2.28;1.95;;;;;;;9.72;nan;-24088.69;5034604;28;20258;-78
2023/01/18 04:02:43;;;;;;;2.22;1.85;;;;;;;10.18;nan;-24101.41;5032975;28;20231;-78
2023/01/18 04:05:09;;;;;;;7.15;2.95;;;;;;;9.95;nan;-24095.03;5034870;28;20248;-80
2023/01/18 04:07:35;;;;;;;3.90;2.17;;;;;;;9.62;nan;-24085.84;5034282;28;20175;-78
2023/01/18 04:10:00;;;;;;;2.90;2.60;;;;;;;9.64;nan;-24086.44;5033338;28;20202;-77
2023/01/18 04:12:26;;;;;;;2.45;2.03;;;;;;;9.85;nan;-24092.06;5033963;28;20175;-76
2023/01/18 04:14:52;;;;;;;3.05;2.03;;;;;;;9.61;nan;-24085.56;5035300;28;20163;-80
2023/01/18 04:17:18;;;;;;;11.55;2.10;;;;;;;9.42;nan;-24080.06;5034766;28;20222;-76
2023/01/18 04:19:43;;;;;;;4.05;2.28;;;;;;;9.79;nan;-24090.38;5034754;28;20266;-80
2023/01/18 04:22:09;;;;;;;1.92;1.63;;;;;;;10.27;nan;-24103.94;5029316;28;20270;-78
2023/01/18 04:24:34;;;;;;;2.10;1.90;;;;;;;9.84;nan;-24091.94;5042999;28;20207;-78
2023/01/18 04:27:00;;;;;;;7.55;2.63;;;;;;;10.04;nan;-24097.44;5027058;28;20704;-79
2023/01/18 04:29:27;;;;;;;2.33;2.05;;;;;;;9.79;nan;-24090.38;5028144;28;20203;-77
2023/01/18 04:31:52;;;;;;;3.03;2.22;;;;;;;9.76;nan;-24089.81;5028335;28;20187;-76
2023/01/18 04:34:20;;;;;;;5.85;2.78;;;;;;;9.71;nan;-24088.25;5027001;28;20175;-76
2023/01/18 04:36:46;;;;;;;3.67;2.42;;;;;;;9.39;nan;-24079.34;5027878;28;20175;-76
2023/01/18 04:39:12;;;;;;;3.83;1.98;;;;;;;9.91;nan;-24093.78;5026260;28;20720;-78
2023/01/18 04:41:38;;;;;;;3.13;2.20;;;;;;;9.50;nan;-24082.47;5042381;28;20577;-78
2023/01/18 04:44:04;;;;;;;8.93;2.30;;;;;;;9.29;nan;-24076.66;5027033;28;20179;-78
2023/01/18 04:46:29;;;;;;;4.57;2.60;;;;;;;9.50;nan;-24082.31;5026975;28;20227;-80
2023/01/18 04:48:55;;;;;;;4.00;2.88;;;;;;;9.26;nan;-24075.81;5026789;28;20257;-78
2023/01/18 04:51:22;;;;;;;4.78;2.33;;;;;;;8.73;nan;-24060.97;5028003;28;20219;-79
2023/01/18 04:53:49;;;;;;;4.95;2.30;;;;;;;9.35;nan;-24078.22;5027085;28;20537;-77
2023/01/18 04:56:15;;;;;;;9.40;2.22;;;;;;;10.24;nan;-24103.09;5042699;28;20638;-78
2023/01/18 04:58:41;;;;;;;1.90;1.73;;;;;;;10.42;nan;-24108.16;5027720;28;20277;-78
2023/01/18 05:01:10;;;;;;;2.60;2.25;;;;;;;10.16;nan;-24100.97;5025422;28;20267;-78
2023/01/18 05:03:37;;;;;;;5.53;2.00;;;;;;;9.85;nan;-24092.22;5027060;28;20313;-76
2023/01/18 05:06:07;;;;;;;3.33;2.17;;;;;;;10.07;nan;-24098.44;5026095;28;20180;-77
2023/01/18 05:08:33;;;;;;;6.15;2.45;;;;;;;9.85;nan;-24092.06;5024711;28;20217;-78
2023/01/18 05:11:03;;;;;;;8.35;2.70;;;;;;;9.34;nan;-24077.94;5041658;28;20268;-79
2023/01/18 05:13:29;;;;;;;5.93;2.53;;;;;;;9.64;nan;-24086.44;5026551;28;20200;-79
2023/01/18 05:15:57;;;;;;;5.75;2.67;;;;;;;9.60;nan;-24085.28;5026940;28;20635;-78
2023/01/18 05:18:22;;;;;;;3.22;2.10;;;;;;;9.74;nan;-24089.09;5025480;28;20191;-77
2023/01/18 05:20:48;;;;;;;3.35;2.60;;;;;;;9.26;nan;-24075.69;5041402;28;20190;-78
2023/01/18 05:23:13;;;;;;;2.45;2.25;;;;;;;9.62;nan;-24085.72;5029452;28;20614;-79
2023/01/18 05:25:38;;;;;;;5.43;2.67;;;;;;;9.61;nan;-24085.56;5030454;28;20183;-80
2023/01/18 05:28:05;;;;;;;6.18;2.78;;;;;;;9.43;nan;-24080.34;5032910;28;20175;-79
2023/01/18 05:30:31;;;;;;;5.38;2.95;;;;;;;9.11;nan;-24071.44;5027005;28;20753;-79
2023/01/18 05:32:56;;;;;;;3.42;2.67;;;;;;;8.87;nan;-24064.78;5033070;28;20306;-77
2023/01/18 05:35:21;;;;;;;4.28;2.95;;;;;;;9.19;nan;-24073.84;5032577;28;20214;-80
2023/01/18 05:37:47;;;;;;;9.77;2.63;;;;;;;9.46;nan;-24081.34;5032563;28;20608;-77
2023/01/18 05:40:13;;;;;;;2.28;2.08;;;;;;;9.44;nan;-24080.78;5031601;28;20274;-77
2023/01/18 05:42:39;;;;;;;2.83;2.58;;;;;;;9.70;nan;-24088.13;5031969;28;20531;-80
2023/01/18 05:45:05;;;;;;;6.82;2.65;;;;;;;9.46;nan;-24081.34;5032536;28;20685;-80
2023/01/18 05:47:31;;;;;;;5.72;2.78;;;;;;;9.26;nan;-24075.81;5032312;28;20650;-80
2023/01/18 05:49:56;;;;;;;5.80;2.88;;;;;;;9.22;nan;-24074.56;5032347;28;20250;-83
2023/01/18 05:52:22;;;;;;;7.60;3.58;;;;;;;9.01;nan;-24068.63;5031339;28;20187;-77
2023/01/18 05:54:47;;;;;;;6.35;3.92;;;;;;;9.17;nan;-24073.13;5048101;28;20189;-79
2023/01/18 05:57:13;;;;;;;11.13;4.20;;;;;;;9.18;nan;-24073.56;5032588;28;20167;-80
2023/01/18 05:59:38;;;;;;;6.97;4.00;;;;;;;9.20;nan;-24074.13;5031504;28;20190;-80
2023/01/18 06:02:04;;;;;;;10.48;3.83;;;;;;;8.98;nan;-24067.75;5047778;28;20223;-80
2023/01/18 06:04:29;;;;;;;6.80;3.67;;;;;;;8.98;nan;-24067.75;5032472;28;20179;-78
2023/01/18 06:06:55;;;;;;;5.88;3.80;;;;;;;8.97;nan;-24067.63;5032620;28;20508;-78
2023/01/18 06:09:20;;;;;;;9.25;3.67;;;;;;;8.87;nan;-24064.78;5030910;28;20930;-77
2023/01/18 06:11:45;;;;;;;14.10;3.03;;;;;;;8.72;nan;-24060.69;5032075;28;20267;-77
2023/01/18 06:14:11;;;;;;;4.88;2.92;;;;;;;9.08;nan;-24070.72;5032251;28;20217;-77
2023/01/18 06:16:36;;;;;;;7.57;4.00;;;;;;;8.69;nan;-24059.84;5032336;28;20209;-76
2023/01/18 06:19:02;;;;;;;8.32;3.90;;;;;;;9.07;nan;-24070.31;5030484;28;20270;-78
2023/01/18 06:21:27;;;;;;;5.32;4.13;;;;;;;8.86;nan;-24064.66;5031970;28;20187;-76
2023/01/18 06:23:53;;;;;;;4.25;3.17;;;;;;;9.11;nan;-24071.59;5029674;28;20688;-77
2023/01/18 06:26:18;;;;;;;4.05;2.80;;;;;;;9.11;nan;-24071.59;5031418;28;20237;-78
2023/01/18 06:28:44;;;;;;;8.13;3.45;;;;;;;9.18;nan;-24073.56;5031047;28;20233;-77
2023/01/18 06:31:10;;;;;;;4.85;3.03;;;;;;;9.50;nan;-24082.47;5031931;28;20686;-77
2023/01/18 06:33:36;;;;;;;10.23;2.67;;;;;;;9.51;nan;-24082.75;5031695;28;20171;-77
2023/01/18 06:36:02;;;;;;;3.30;2.88;;;;;;;9.37;nan;-24078.66;5030916;28;20203;-77
2023/01/18 06:38:28;;;;;;;4.35;3.30;;;;;;;9.60;nan;-24085.16;5047195;28;20516;-76
2023/01/18 06:40:54;;;;;;;2.58;2.38;;;;;;;9.69;nan;-24087.84;5031712;28;20179;-77
2023/01/18 06:43:20;;;;;;;8.40;2.95;;;;;;;9.72;nan;-24088.69;5029536;28;20262;-75
2023/01/18 06:45:55;;;;;;;5.72;3.28;;;;;;;10.03;nan;-24097.16;5019311;28;20710;-78
2023/01/18 06:48:25;;;;;;;5.53;2.85;;;;;;;9.90;nan;-24093.47;5030285;28;20190;-78
2023/01/18 06:50:51;;;;;;;7.50;2.92;;;;;;;9.98;nan;-24095.75;5031153;28;20207;-78
2023/01/18 06:53:19;;;;;;;14.45;4.82;;;;;;;10.17;nan;-24101.25;5031663;28;20179;-77
2023/01/18 06:55:55;;;;;;;19.17;4.63;;;;;;;10.10;nan;-24099.28;5030102;28;20187;-76
2023/01/18 06:58:21;;;;;;;9.40;3.80;;;;;;;10.03;nan;-24097.16;5031199;28;20209;-74
2023/01/18 07:00:47;;;;;;;8.77;2.33;;;;;;;10.84;nan;-24119.88;5030535;28;20202;-77
2023/01/18 07:03:12;;;;;;;3.30;2.60;;;;;;;11.27;nan;-24131.88;5029590;28;20238;-77
2023/01/18 07:05:38;;;;;;;8.40;3.03;;;;;;;11.34;nan;-24133.84;5029678;28;20221;-78
2023/01/18 07:08:03;;;;;;;3.58;2.67;;;;;;;11.52;nan;-24138.78;5031286;28;20171;-79
2023/01/18 07:10:29;;;;;;;7.75;2.97;;;;;;;11.80;nan;-24146.66;5046151;28;20265;-77
2023/01/18 07:12:54;;;;;;;13.88;3.30;;;;;;;11.75;nan;-24145.13;5029652;28;20693;-78
2023/01/18 07:15:19;;;;;;;6.93;3.28;;;;;;;11.78;nan;-24146.09;5030091;28;20198;-77
2023/01/18 07:17:45;;;;;;;6.60;2.63;;;;;;;11.66;nan;-24142.56;5031556;28;20171;-75
2023/01/18 07:20:14;;;;;;;9.73;2.75;;;;;;;11.92;nan;-24149.91;5030253;28;20210;-69
2023/01/18 07:22:39;;;;;;;11.35;3.67;;;;;;;11.69;nan;-24143.56;5031711;28;20160;-70
2023/01/18 07:25:05;;;;;;;4.88;2.83;;;;;;;11.66;nan;-24142.72;5030055;28;20206;-71
2023/01/18 07:27:30;;;;;;;3.97;2.85;;;;;;;11.65;nan;-24142.28;5031417;28;20172;-69
2023/01/18 07:29:56;;;;;;;6.82;3.28;;;;;;;12.03;nan;-24153.00;5030909;28;20684;-70
2023/01/18 07:32:21;;;;;;;10.85;4.35;;;;;;;12.09;nan;-24154.53;5034461;28;20191;-69
2023/01/18 07:34:47;;;;;;;4.32;2.70;;;;;;;11.98;nan;-24151.44;5035298;28;20209;-69
2023/01/18 07:37:12;;;;;;;7.93;3.60;;;;;;;12.24;nan;-24158.78;5035267;28;20580;-70
2023/01/18 07:39:37;;;;;;;8.30;3.22;;;;;;;12.04;nan;-24153.28;5035337;28;20175;-69
2023/01/18 07:42:03;;;;;;;8.98;3.35;;;;;;;12.11;nan;-24155.25;5035088;28;20163;-70
2023/01/18 07:44:29;;;;;;;5.32;3.35;;;;;;;11.88;nan;-24148.91;5034721;28;20203;-71
2023/01/18 07:46:54;;;;;;;5.45;3.05;;;;;;;12.19;nan;-24157.50;5035821;28;20191;-70
2023/01/18 07:49:19;;;;;;;6.95;3.35;;;;;;;12.37;nan;-24162.44;5036006;28;20626;-70
2023/01/18 07:51:45;;;;;;;4.03;3.20;;;;;;;12.21;nan;-24157.91;5034849;28;20229;-70
2023/01/18 07:54:10;;;;;;;4.75;2.85;;;;;;;12.06;nan;-24153.69;5034658;28;20672;-70
2023/01/18 07:56:36;;;;;;;4.55;2.42;;;;;;;12.11;nan;-24155.13;5034777;28;20171;-70
2023/01/18 07:59:01;;;;;;;5.03;2.90;;;;;;;12.37;nan;-24162.56;5034349;28;20180;-70
2023/01/18 08:01:27;;;;;;;5.68;3.03;;;;;;;12.59;nan;-24168.47;5033607;28;20180;-70
2023/01/18 08:03:53;;;;;;;8.57;2.38;;;;;;;13.06;nan;-24181.69;5022842;28;20617;-70
2023/01/18 08:06:23;;;;;;;6.78;3.33;;;;;;;13.12;nan;-24183.38;5014702;28;20565;-70
2023/01/18 08:08:49;;;;;;;6.10;3.20;;;;;;;13.48;nan;-24193.22;5014932;28;20192;-71
2023/01/18 08:11:14;;;;;;;10.57;3.00;;;;;;;13.61;nan;-24197.00;5014656;28;20695;-70
2023/01/18 08:13:40;;;;;;;9.52;3.42;;;;;;;13.46;nan;-24192.78;5014594;28;20169;-70
2023/01/18 08:16:07;;;;;;;3.55;2.60;;;;;;;13.84;nan;-24203.19;5014365;28;20259;-70
2023/01/18 08:18:32;;;;;;;4.60;2.58;;;;;;;14.03;nan;-24208.66;5014678;28;20315;-70
2023/01/18 08:20:58;;;;;;;8.77;2.83;;;;;;;14.27;nan;-24215.13;5014744;28;20267;-71
2023/01/18 08:23:24;;;;;;;5.70;2.90;;;;;;;14.75;nan;-24228.44;5014857;28;20176;-70
2023/01/18 08:25:49;;;;;;;6.50;3.13;;;;;;;14.79;nan;-24229.56;5014557;28;20183;-69
2023/01/18 08:28:15;;;;;;;14.65;3.95;;;;;;;15.07;nan;-24237.28;5014508;28;20164;-70
2023/01/18 08:30:44;;;;;;;5.10;2.60;;;;;;;14.93;nan;-24233.50;5014353;28;20274;-70
2023/01/18 08:33:09;;;;;;;4.65;2.63;;;;;;;14.75;nan;-24228.56;5014452;28;20180;-70
2023/01/18 08:35:41;;;;;;;7.00;2.65;;;;;;;14.78;nan;-24229.41;5014349;28;20168;-70
2023/01/18 08:38:07;;;;;;;3.35;2.25;;;;;;;14.88;nan;-24232.22;5014061;28;20259;-70
2023/01/18 08:40:32;;;;;;;3.65;2.63;;;;;;;14.54;nan;-24222.69;5014066;28;20711;-70
2023/01/18 08:43:00;;;;;;;8.00;3.42;;;;;;;15.03;nan;-24236.28;5013397;28;20183;-70
2023/01/18 08:45:26;;;;;;;7.95;3.55;;;;;;;14.96;nan;-24234.47;5013914;28;20226;-70
2023/01/18 08:47:59;;;;;;;6.03;2.80;;;;;;;15.51;nan;-24249.47;5013935;28;20180;-70
2023/01/18 08:50:25;;;;;;;5.75;2.40;;;;;;;15.75;nan;-24256.31;5014073;28;20204;-69
2023/01/18 08:52:52;;;;;;;5.15;2.78;;;;;;;15.98;nan;-24262.59;5013563;28;20191;-70
2023/01/18 08:55:18;;;;;;;6.15;2.70;;;;;;;15.90;nan;-24260.38;5013624;28;20267;-69
2023/01/18 08:57:44;;;;;;;5.45;2.80;;;;;;;15.59;nan;-24251.69;5011843;28;20283;-69
2023/01/18 09:00:10;;;;;;;3.45;2.22;;;;;;;15.94;nan;-24261.34;5014890;28;20706;-70
2023/01/18 09:02:35;;;;;;;3.60;2.20;;;;;;;15.92;nan;-24260.94;5028670;28;20708;-71
2023/01/18 09:05:00;;;;;;;3.15;2.25;;;;;;;16.25;nan;-24270.16;5033431;28;20175;-70
2023/01/18 09:07:26;;;;;;;8.73;2.47;;;;;;;15.96;nan;-24261.91;5033658;28;20207;-70
2023/01/18 09:09:52;;;;;;;4.57;2.58;;;;;;;16.48;nan;-24276.31;5033324;28;20290;-70
2023/01/18 09:12:17;;;;;;;5.25;2.10;;;;;;;16.70;nan;-24282.59;5033554;28;20178;-70
2023/01/18 09:14:43;;;;;;;4.88;2.05;;;;;;;16.48;nan;-24276.31;5033491;28;20179;-70
2023/01/18 09:17:08;;;;;;;4.85;2.00;;;;;;;16.41;nan;-24274.50;5033628;28;20182;-71
2023/01/18 09:19:33;;;;;;;2.42;1.83;;;;;;;16.94;nan;-24289.03;5033590;28;20710;-70
2023/01/18 09:21:59;;;;;;;6.18;2.53;;;;;;;16.86;nan;-24286.78;5033220;28;20249;-70
2023/01/18 09:24:24;;;;;;;1.92;1.45;;;;;;;17.12;nan;-24294.06;5033295;28;20203;-70
2023/01/18 09:26:50;;;;;;;5.93;1.98;;;;;;;17.20;nan;-24296.28;5033172;28;20635;-70
2023/01/18 09:29:17;;;;;;;4.68;1.85;;;;;;;17.30;nan;-24299.09;5032784;28;20177;-70
2023/01/18 09:31:42;;;;;;;5.60;2.40;;;;;;;17.95;nan;-24316.94;5033278;28;20171;-70
2023/01/18 09:34:09;;;;;;;2.55;1.90;;;;;;;17.87;nan;-24314.72;5033209;28;20524;-70
2023/01/18 09:36:34;;;;;;;2.58;1.60;;;;;;;17.58;nan;-24306.75;5033004;28;20187;-70
2023/01/18 09:39:00;;;;;;;5.45;1.67;;;;;;;18.20;nan;-24323.91;5032621;28;20610;-68
2023/01/18 09:41:38;;;;;;;2.35;1.30;;;;;;;18.61;nan;-24335.19;5032840;28;20206;-68
2023/01/18 09:44:15;;;;;;;1.30;1.10;;;;;;;18.68;nan;-24337.00;5032443;28;20178;-68
2023/01/18 09:46:41;;;;;;;1.73;1.20;;;;;;;18.79;nan;-24340.22;5031856;28;20186;-79
2023/01/18 09:49:18;;;;;;;1.77;1.10;;;;;;;18.95;nan;-24344.53;5033196;28;20550;-79
2023/01/18 09:51:54;;;;;;;2.30;1.15;;;;;;;19.38;nan;-24356.50;5031406;28;20630;-79
2023/01/18 09:54:36;;;;;;;1.98;1.20;;;;;;;19.47;nan;-24358.72;5030706;28;20670;-80
2023/01/18 09:57:27;;;;;;;2.60;1.00;;;;;;;19.39;nan;-24356.63;5020512;28;20666;-79
2023/01/18 09:59:59;;;;;;;0.88;0.82;;;;;;;19.67;nan;-24364.28;5012469;28;20227;-79
2023/01/18 10:02:34;;;;;;;1.08;0.75;;;;;;;19.60;nan;-24362.34;5011033;28;20228;-79
2023/01/18 10:05:05;;;;;;;2.20;1.08;;;;;;;19.76;nan;-24366.78;5012796;28;20179;-79
2023/01/18 10:07:34;;;;;;;1.67;1.30;;;;;;;19.62;nan;-24363.03;5015924;28;20183;-79
2023/01/18 10:10:02;;;;;;;3.28;1.48;;;;;;;19.79;nan;-24367.63;5030733;28;20256;-79
2023/01/18 10:12:39;;;;;;;1.52;0.95;;;;;;;19.93;nan;-24371.50;5032523;28;20227;-79
2023/01/18 10:15:16;;;;;;;2.67;0.85;;;;;;;19.72;nan;-24365.69;5035555;28;20163;-78
2023/01/18 10:17:43;;;;;;;0.98;0.88;;;;;;;19.51;nan;-24359.84;5018524;28;20175;-79
2023/01/18 10:20:13;;;;;;;1.52;0.95;;;;;;;19.90;nan;-24370.53;5011919;28;20176;-78
2023/01/18 10:22:49;;;;;;;2.53;0.90;;;;;;;19.84;nan;-24369.16;5027149;28;20606;-78
2023/01/18 10:25:31;;;;;;;1.25;1.00;;;;;;;20.08;nan;-24375.53;5031679;28;20269;-78
2023/01/18 10:28:23;;;;;;;1.98;1.00;;;;;;;20.04;nan;-24374.56;5031987;28;20167;-77
2023/01/18 10:30:54;;;;;;;1.38;1.13;;;;;;;20.21;nan;-24379.28;5031414;28;20257;-78
2023/01/18 10:33:28;;;;;;;1.00;1.00;;;;;;;20.25;nan;-24380.41;5031425;28;20164;-79
2023/01/18 10:36:03;;;;;;;0.98;0.93;;;;;;;19.96;nan;-24372.34;5031410;28;20176;-78
2023/01/18 10:38:29;;;;;;;1.65;1.10;;;;;;;19.93;nan;-24371.50;5030960;28;20166;-78
2023/01/18 10:40:59;;;;;;;4.10;1.00;;;;;;;20.10;nan;-24376.09;5031644;28;20177;-78
2023/01/18 10:43:27;;;;;;;0.90;0.90;;;;;;;19.97;nan;-24372.50;5030230;28;20598;-78
2023/01/18 10:45:53;;;;;;;1.65;0.93;;;;;;;19.88;nan;-24370.13;5031731;28;20229;-77
2023/01/18 10:48:27;;;;;;;1.10;1.00;;;;;;;19.95;nan;-24372.06;5030698;28;20258;-78
2023/01/18 10:51:06;;;;;;;2.40;1.25;;;;;;;19.48;nan;-24359.00;5030136;28;20224;-78
2023/01/18 10:53:37;;;;;;;1.88;1.20;;;;;;;19.74;nan;-24366.38;5030934;28;20174;-79
2023/01/18 10:56:17;;;;;;;1.25;0.70;;;;;;;19.74;nan;-24366.22;5032016;28;20186;-80
2023/01/18 10:58:59;;;;;;;0.70;0.70;;;;;;;19.52;nan;-24360.25;5030624;28;20526;-79
2023/01/18 11:01:34;;;;;;;1.33;0.95;;;;;;;19.73;nan;-24366.09;5032001;28;20168;-79
2023/01/18 11:04:06;;;;;;;0.85;0.80;;;;;;;19.36;nan;-24355.81;5029874;28;20230;-79
2023/01/18 11:07:16;;;;;;;1.55;0.90;;;;;;;19.96;nan;-24372.34;5034315;28;20167;-79
2023/01/18 11:09:53;;;;;;;3.10;1.17;;;;;;;19.77;nan;-24367.19;5032696;28;20238;-80
2023/01/18 11:12:50;;;;;;;6.20;1.52;;;;;;;19.62;nan;-24363.03;5034389;28;20583;-79
2023/01/18 11:15:21;;;;;;;4.57;1.10;;;;;;;19.69;nan;-24364.97;5032949;28;20218;-80
2023/01/18 11:17:53;;;;;;;3.58;1.05;;;;;;;19.78;nan;-24367.34;5034860;28;20175;-82
2023/01/18 11:20:32;;;;;;;2.17;1.73;;;;;;;19.48;nan;-24359.00;5035767;28;20171;-80
2023/01/18 11:23:13;;;;;;;7.30;1.40;;;;;;;19.75;nan;-24366.50;5034274;28;20552;-79
2023/01/18 11:25:50;;;;;;;5.30;1.20;;;;;;;19.59;nan;-24362.19;5034872;28;20255;-80
2023/01/18 11:28:38;;;;;;;3.00;1.00;;;;;;;19.87;nan;-24369.84;5035239;28;20179;-80
2023/01/18 11:31:14;;;;;;;8.60;1.27;;;;;;;19.41;nan;-24357.34;5034173;28;20330;-78
2023/01/18 11:34:02;;;;;;;1.38;0.95;;;;;;;19.69;nan;-24364.84;5033967;28;20175;-80
2023/01/18 11:36:43;;;;;;;3.00;1.15;;;;;;;19.49;nan;-24359.41;5034179;28;20188;-80
2023/01/18 11:39:28;;;;;;;3.90;1.25;;;;;;;19.51;nan;-24359.97;5033933;28;20179;-81
2023/01/18 11:42:23;;;;;;;2.60;1.25;;;;;;;19.30;nan;-24354.28;5034216;28;20176;-79
2023/01/18 11:45:09;;;;;;;5.97;1.83;;;;;;;19.23;nan;-24352.31;5034370;28;20237;-79
2023/01/18 11:48:00;;;;;;;3.20;1.52;;;;;;;19.32;nan;-24354.69;5034770;28;20634;-79
2023/01/18 11:50:42;;;;;;;2.30;1.10;;;;;;;19.59;nan;-24362.06;5006142;28;20203;-79
2023/01/18 11:53:40;;;;;;;3.90;1.02;;;;;;;19.61;nan;-24362.63;5033701;28;20270;-80
2023/01/18 11:56:19;;;;;;;2.15;1.35;;;;;;;19.65;nan;-24363.72;5034884;28;20237;-79
2023/01/18 11:58:44;;;;;;;1.83;1.10;;;;;;;19.69;nan;-24364.84;5034985;28;20182;-79
2023/01/18 12:01:37;;;;;;;3.20;0.95;;;;;;;19.55;nan;-24360.94;5034836;28;20190;-79
2023/01/18 12:04:12;;;;;;;17.70;1.20;;;;;;;19.69;nan;-24364.97;5034551;28;20191;-79
2023/01/18 12:06:47;;;;;;;5.70;1.40;;;;;;;19.54;nan;-24360.81;5033783;28;20212;-79
2023/01/18 12:09:49;;;;;;;3.78;1.30;;;;;;;19.63;nan;-24363.16;5033458;28;20224;-80
2023/01/18 12:12:35;;;;;;;2.72;1.15;;;;;;;19.56;nan;-24361.38;5034925;28;20178;-79
2023/01/18 12:15:19;;;;;;;5.90;1.80;;;;;;;19.84;nan;-24369.00;5023984;28;20213;-80
2023/01/18 12:17:59;;;;;;;3.45;1.30;;;;;;;19.91;nan;-24370.97;5032700;28;20183;-79
2023/01/18 12:20:58;;;;;;;4.75;1.20;;;;;;;19.91;nan;-24370.81;5034876;28;20328;-80
2023/01/18 12:23:42;;;;;;;5.15;1.83;;;;;;;20.11;nan;-24376.50;4224078;28;20745;-80
2023/01/18 12:26:13;;;;;;;5.50;1.35;;;;;;;20.36;nan;-24383.31;4242056;28;20989;-81
2023/01/18 12:28:39;;;;;;;2.75;1.40;;;;;;;20.25;nan;-24380.25;4237901;28;20882;-81
2023/01/18 12:31:30;;;;;;;3.17;1.20;;;;;;;20.47;nan;-24386.25;4782879;28;20214;-80